createdAt,value
2022-11-30T00:00:08.199Z,95858.97
2022-11-30T00:05:19.298Z,95849.16
2022-11-30T00:10:22.328Z,95851.94
2022-11-30T00:15:26.162Z,95855.66
2022-11-30T00:20:30.072Z,95854.06
2022-11-30T00:25:33.382Z,95865.81
2022-11-30T00:30:36.086Z,95858.09
2022-11-30T00:35:39.165Z,95851.63
2022-11-30T00:40:41.848Z,95854.84
2022-11-30T00:45:44.631Z,95859.59
2022-11-30T00:50:47.269Z,95861.00
2022-11-30T00:55:50.282Z,95871.91
2022-11-30T01:00:52.920Z,95871.88
2022-11-30T01:05:55.546Z,95872.38
2022-11-30T01:10:58.620Z,95874.91
2022-11-30T01:16:01.473Z,95871.06
2022-11-30T01:21:04.273Z,95868.63
2022-11-30T01:26:06.992Z,95870.94
2022-11-30T01:31:09.706Z,95873.91
2022-11-30T01:36:12.324Z,95876.53
2022-11-30T01:41:14.941Z,95868.97
2022-11-30T01:46:17.630Z,95870.66
2022-11-30T01:51:20.328Z,95878.78
2022-11-30T01:56:22.883Z,95882.88
2022-11-30T02:01:29.707Z,95869.97
2022-11-30T02:06:32.339Z,95871.81
2022-11-30T02:11:35.085Z,95868.59
2022-11-30T02:16:44.383Z,95867.34
2022-11-30T02:21:47.050Z,95865.72
2022-11-30T02:26:50.078Z,95863.75
2022-11-30T02:31:52.931Z,95875.06
2022-11-30T02:36:55.532Z,95876.63
2022-11-30T02:41:58.312Z,95884.09
2022-11-30T02:47:00.927Z,95887.72
2022-11-30T02:52:03.535Z,95891.97
2022-11-30T02:57:06.138Z,95893.38
2022-11-30T03:02:08.727Z,95882.25
2022-11-30T03:07:11.289Z,95887.75
2022-11-30T03:12:13.868Z,95891.03
2022-11-30T03:17:16.461Z,95903.06
2022-11-30T03:22:19.051Z,95904.06
2022-11-30T03:27:22.723Z,95901.41
2022-11-30T03:32:25.404Z,95897.59
2022-11-30T03:37:28.045Z,95911.84
2022-11-30T03:42:30.860Z,95911.06
2022-11-30T03:47:33.517Z,95918.00
2022-11-30T03:52:36.208Z,95917.34
2022-11-30T03:57:38.865Z,95908.25
2022-11-30T04:02:44.702Z,95911.84
2022-11-30T04:07:47.818Z,95909.44
2022-11-30T04:12:50.397Z,95901.81
2022-11-30T04:17:58.326Z,95908.88
2022-11-30T04:23:01.325Z,95907.47
2022-11-30T04:28:04.032Z,95901.19
2022-11-30T04:33:06.623Z,95896.94
2022-11-30T04:38:09.208Z,95898.69
2022-11-30T04:43:11.802Z,95904.69
2022-11-30T04:48:24.380Z,95910.38
2022-11-30T04:53:27.040Z,95917.13
2022-11-30T04:58:29.627Z,95908.19
2022-11-30T05:03:32.179Z,95916.97
2022-11-30T05:08:34.838Z,95918.41
2022-11-30T05:13:37.463Z,95919.63
2022-11-30T05:18:40.112Z,95919.00
2022-11-30T05:23:42.740Z,95922.44
2022-11-30T05:28:45.408Z,95927.28
2022-11-30T05:33:48.049Z,95924.38
2022-11-30T05:39:00.700Z,95932.31
2022-11-30T05:44:03.380Z,95941.56
2022-11-30T05:49:06.529Z,95942.75
2022-11-30T05:54:09.185Z,95937.50
2022-11-30T05:59:11.780Z,95933.69
2022-11-30T06:04:14.391Z,95931.00
2022-11-30T06:09:16.965Z,95940.16
2022-11-30T06:14:19.534Z,95936.44
2022-11-30T06:19:22.207Z,95937.66
2022-11-30T06:24:25.217Z,95929.47
2022-11-30T06:29:27.845Z,95929.09
2022-11-30T06:34:30.992Z,95942.56
2022-11-30T06:40:04.441Z,95938.03
2022-11-30T06:45:02.785Z,95933.63
2022-11-30T06:50:05.399Z,95936.00
2022-11-30T06:55:09.380Z,95933.13
2022-11-30T07:00:12.629Z,95945.75
2022-11-30T07:05:15.321Z,95941.69
2022-11-30T07:10:20.296Z,95945.38
2022-11-30T07:15:23.101Z,95952.75
2022-11-30T07:20:25.707Z,95949.88
2022-11-30T07:25:47.996Z,95951.00
2022-11-30T07:30:51.136Z,95962.47
2022-11-30T07:35:54.736Z,95956.06
2022-11-30T07:40:57.959Z,95964.66
2022-11-30T07:46:01.380Z,95960.47
2022-11-30T07:51:04.573Z,95954.81
2022-11-30T07:56:07.249Z,95956.34
2022-11-30T08:01:09.975Z,95959.72
2022-11-30T08:06:15.251Z,95963.13
2022-11-30T08:11:20.774Z,95957.75
2022-11-30T08:16:30.176Z,95961.16
2022-11-30T08:21:33.321Z,95962.16
2022-11-30T08:26:36.407Z,95966.00
2022-11-30T08:31:39.584Z,95970.91
2022-11-30T08:36:47.175Z,95973.13
2022-11-30T08:41:54.767Z,95979.22
2022-11-30T08:46:57.913Z,95977.66
2022-11-30T08:52:18.256Z,95978.09
2022-11-30T08:57:21.401Z,95988.16
2022-11-30T09:02:24.025Z,95990.66
2022-11-30T09:07:30.631Z,95988.75
2022-11-30T09:12:37.292Z,95985.56
2022-11-30T09:17:39.924Z,95991.78
2022-11-30T09:22:43.072Z,95995.09
2022-11-30T09:27:46.156Z,95991.50
2022-11-30T09:32:49.232Z,95983.38
2022-11-30T09:37:52.308Z,95979.84
2022-11-30T09:42:55.455Z,95983.22
2022-11-30T09:47:58.846Z,95980.53
2022-11-30T09:53:03.919Z,95975.75
2022-11-30T09:58:06.699Z,95967.47
2022-11-30T10:03:09.419Z,95968.81
2022-11-30T10:08:12.268Z,95973.66
2022-11-30T10:13:14.993Z,95968.00
2022-11-30T10:18:17.685Z,95974.53
2022-11-30T10:23:20.407Z,95968.50
2022-11-30T10:28:46.680Z,95974.69
2022-11-30T10:33:46.859Z,95977.59
2022-11-30T10:38:49.964Z,95972.44
2022-11-30T10:43:53.067Z,95972.69
2022-11-30T10:48:56.888Z,95967.16
2022-11-30T10:54:00.132Z,95948.81
2022-11-30T10:59:02.828Z,95950.16
2022-11-30T11:04:05.665Z,95941.28
2022-11-30T11:09:08.389Z,95934.66
2022-11-30T11:14:11.113Z,95939.78
2022-11-30T11:19:14.279Z,95935.38
2022-11-30T11:24:19.953Z,95937.53
2022-11-30T11:29:31.466Z,95941.63
2022-11-30T11:34:34.689Z,95927.50
2022-11-30T11:39:37.416Z,95926.47
2022-11-30T11:44:42.638Z,95929.34
2022-11-30T11:49:48.166Z,95934.38
2022-11-30T11:54:51.029Z,95940.91
2022-11-30T11:59:53.841Z,95929.88
2022-11-30T12:04:57.624Z,95935.44
2022-11-30T12:10:00.494Z,95938.91
2022-11-30T12:15:03.314Z,95928.72
2022-11-30T12:20:06.424Z,95923.56
2022-11-30T12:25:10.504Z,95928.50
2022-11-30T12:30:15.853Z,95930.06
2022-11-30T12:35:18.628Z,95937.06
2022-11-30T12:40:21.404Z,95932.28
2022-11-30T12:45:24.028Z,95926.06
2022-11-30T12:50:26.658Z,95935.50
2022-11-30T12:55:29.312Z,95927.22
2022-11-30T13:00:35.224Z,95924.81
2022-11-30T13:05:37.989Z,95930.44
2022-11-30T13:10:40.702Z,95931.84
2022-11-30T13:15:44.352Z,95920.19
2022-11-30T13:20:47.047Z,95923.66
2022-11-30T13:31:12.932Z,95933.81
2022-11-30T13:36:15.580Z,95924.72
2022-11-30T13:41:18.180Z,95925.25
2022-11-30T13:46:21.127Z,95927.09
2022-11-30T13:51:23.798Z,95933.41
2022-11-30T13:56:26.497Z,95940.84
2022-11-30T14:06:49.576Z,95946.38
2022-11-30T14:11:52.287Z,95945.31
2022-11-30T14:16:54.985Z,95943.13
2022-11-30T14:21:57.640Z,95937.38
2022-11-30T14:27:00.324Z,95953.13
2022-11-30T14:32:02.975Z,95958.00
2022-11-30T14:37:06.068Z,95963.09
2022-11-30T14:42:08.756Z,95970.84
2022-11-30T14:47:12.504Z,95970.41
2022-11-30T14:52:15.171Z,95970.75
2022-11-30T14:57:18.114Z,95970.25
2022-11-30T15:02:20.803Z,95967.44
2022-11-30T15:07:24.494Z,95973.03
2022-11-30T15:12:29.138Z,95970.00
2022-11-30T15:17:32.620Z,95973.06
2022-11-30T15:22:39.722Z,95972.03
2022-11-30T15:27:42.756Z,95979.63
2022-11-30T15:32:45.622Z,95980.44
2022-11-30T15:37:48.389Z,95985.00
2022-11-30T15:42:51.153Z,95980.41
2022-11-30T15:47:54.474Z,95989.63
2022-11-30T15:52:57.828Z,95986.69
2022-11-30T15:58:00.679Z,95989.50
2022-11-30T16:03:03.707Z,95996.88
2022-11-30T16:08:06.606Z,95996.69
2022-11-30T16:13:10.054Z,96003.50
2022-11-30T16:18:13.721Z,96000.66
2022-11-30T16:23:19.517Z,95996.94
2022-11-30T16:28:33.504Z,95996.94
2022-11-30T16:33:36.598Z,96010.84
2022-11-30T16:38:39.209Z,96005.53
2022-11-30T16:43:47.030Z,96006.16
2022-11-30T16:48:50.879Z,96010.47
2022-11-30T16:53:54.164Z,96012.09
2022-11-30T16:58:57.785Z,96015.75
2022-11-30T17:04:01.683Z,96008.91
2022-11-30T17:09:07.571Z,96005.06
2022-11-30T17:14:10.267Z,96017.22
2022-11-30T17:19:13.002Z,96014.38
2022-11-30T17:24:16.051Z,96017.84
2022-11-30T17:29:20.089Z,96016.00
2022-11-30T17:34:23.153Z,96022.25
2022-11-30T17:39:26.176Z,96024.97
2022-11-30T17:44:29.014Z,96030.88
2022-11-30T17:49:32.741Z,96023.13
2022-11-30T17:54:35.407Z,96019.31
2022-11-30T17:59:44.893Z,96023.59
2022-11-30T18:04:50.166Z,96020.31
2022-11-30T18:09:53.125Z,96026.38
2022-11-30T18:14:55.809Z,96025.97
2022-11-30T18:19:59.455Z,96032.94
2022-11-30T18:25:02.097Z,96046.78
2022-11-30T18:30:09.967Z,96040.63
2022-11-30T18:35:14.454Z,96035.50
2022-11-30T18:40:18.023Z,96051.25
2022-11-30T18:45:22.179Z,96042.66
2022-11-30T18:50:24.862Z,96048.41
2022-11-30T18:55:27.587Z,96057.78
2022-11-30T19:00:31.120Z,96061.88
2022-11-30T19:05:35.055Z,96056.97
2022-11-30T19:10:37.673Z,96052.50
2022-11-30T19:15:40.370Z,96062.66
2022-11-30T19:20:43.029Z,96063.06
2022-11-30T19:25:46.530Z,96055.75
2022-11-30T19:30:50.143Z,96060.59
2022-11-30T19:35:52.846Z,96054.69
2022-11-30T19:40:55.807Z,96052.44
2022-11-30T19:45:59.954Z,96062.22
2022-11-30T19:51:03.675Z,96059.78
2022-11-30T19:56:06.474Z,96069.59
2022-11-30T20:01:09.844Z,96068.97
2022-11-30T20:06:13.711Z,96068.56
2022-11-30T20:11:17.157Z,96064.66
2022-11-30T20:16:20.030Z,96069.53
2022-11-30T20:21:23.076Z,96071.97
2022-11-30T20:26:26.257Z,96058.50
2022-11-30T20:31:29.222Z,96059.72
2022-11-30T20:36:32.268Z,96065.03
2022-11-30T20:41:35.253Z,96077.47
2022-11-30T20:46:38.186Z,96060.13
2022-11-30T20:51:41.865Z,96058.31
2022-11-30T20:56:46.114Z,96069.53
2022-11-30T21:01:51.364Z,96077.72
2022-11-30T21:06:54.326Z,96073.63
2022-11-30T21:11:57.069Z,96081.38
2022-11-30T21:16:59.875Z,96079.75
2022-11-30T21:22:06.654Z,96080.94
2022-11-30T21:27:09.388Z,96087.06
2022-11-30T21:32:12.108Z,96080.16
2022-11-30T21:37:14.773Z,96078.91
2022-11-30T21:42:17.398Z,96078.91
2022-11-30T21:47:20.037Z,96075.91
2022-11-30T21:52:22.600Z,96071.63
2022-11-30T21:57:26.206Z,96074.66
2022-11-30T22:02:28.923Z,96078.09
2022-11-30T22:07:32.644Z,96072.63
2022-11-30T22:12:35.520Z,96074.25
2022-11-30T22:17:38.673Z,96073.03
2022-11-30T22:22:41.768Z,96072.38
2022-11-30T22:27:44.904Z,96062.44
2022-11-30T22:32:49.355Z,96071.97
2022-11-30T22:37:52.486Z,96058.69
2022-11-30T22:42:55.621Z,96060.31
2022-11-30T22:47:58.732Z,96074.84
2022-11-30T22:53:03.200Z,96068.34
2022-11-30T22:58:06.760Z,96075.28
2022-11-30T23:03:09.940Z,96089.34
2022-11-30T23:08:13.241Z,96081.03
2022-11-30T23:13:16.564Z,96076.31
2022-11-30T23:18:19.684Z,96078.16
2022-11-30T23:23:22.880Z,96070.81
2022-11-30T23:28:26.588Z,96062.69
2022-11-30T23:33:29.713Z,96061.84
2022-11-30T23:38:33.023Z,96059.03
2022-11-30T23:43:36.208Z,96062.06
2022-11-30T23:48:39.415Z,96059.44
2022-11-30T23:53:42.799Z,96061.06
2022-11-30T23:58:46.241Z,96051.28
